createdAt,value
2022-11-28T00:00:05.717Z,55.69
2022-11-28T00:02:32.455Z,56.19
2022-11-28T00:04:59.160Z,56.01
2022-11-28T00:07:25.899Z,56.37
2022-11-28T00:09:52.521Z,56.81
2022-11-28T00:12:19.165Z,56.20
2022-11-28T00:14:45.780Z,55.28
2022-11-28T00:17:12.417Z,55.25
2022-11-28T00:19:39.066Z,54.89
2022-11-28T00:22:05.703Z,53.49
2022-11-28T00:24:32.367Z,54.55
2022-11-28T00:26:59.000Z,54.22
2022-11-28T00:29:25.614Z,54.68
2022-11-28T00:31:52.262Z,54.22
2022-11-28T00:34:18.942Z,54.38
2022-11-28T00:36:46.308Z,53.57
2022-11-28T00:39:13.042Z,54.94
2022-11-28T00:41:39.660Z,53.69
2022-11-28T00:44:06.329Z,54.81
2022-11-28T00:46:32.961Z,53.50
2022-11-28T00:48:59.612Z,54.87
2022-11-28T00:51:30.924Z,55.34
2022-11-28T00:53:58.470Z,55.95
2022-11-28T00:56:33.143Z,55.60
2022-11-28T00:58:59.773Z,55.15
2022-11-28T01:01:28.364Z,54.59
2022-11-28T01:03:56.362Z,55.00
2022-11-28T01:06:31.222Z,55.14
2022-11-28T01:09:01.972Z,53.84
2022-11-28T01:11:28.888Z,52.92
2022-11-28T01:13:56.818Z,52.88
2022-11-28T01:16:23.549Z,52.54
2022-11-28T01:18:50.302Z,53.12
2022-11-28T01:21:16.932Z,54.41
2022-11-28T01:23:43.539Z,53.79
2022-11-28T01:26:11.716Z,53.37
2022-11-28T01:28:38.336Z,53.16
2022-11-28T01:31:09.000Z,53.07
2022-11-28T01:33:35.694Z,54.62
2022-11-28T01:36:02.414Z,54.04
2022-11-28T01:38:29.029Z,54.17
2022-11-28T01:40:55.996Z,53.83
2022-11-28T01:43:22.904Z,55.13
2022-11-28T01:45:49.549Z,54.58
2022-11-28T01:48:27.464Z,55.25
2022-11-28T01:50:57.120Z,56.60
2022-11-28T01:53:23.769Z,57.38
2022-11-28T01:55:54.494Z,57.39
2022-11-28T01:58:21.103Z,58.12
2022-11-28T02:00:47.783Z,58.89
2022-11-28T02:03:20.076Z,58.96
2022-11-28T02:05:47.521Z,58.74
2022-11-28T02:08:14.144Z,58.98
2022-11-28T02:11:02.961Z,58.96
2022-11-28T02:13:59.214Z,59.24
2022-11-28T02:16:33.272Z,59.31
2022-11-28T02:19:25.152Z,58.88
2022-11-28T02:21:56.567Z,59.13
2022-11-28T02:24:35.146Z,58.84
2022-11-28T02:27:09.172Z,59.40
2022-11-28T02:29:38.719Z,59.11
2022-11-28T02:32:27.182Z,58.40
2022-11-28T02:35:16.747Z,60.07
2022-11-28T02:38:11.225Z,59.50
2022-11-28T02:40:50.036Z,59.23
2022-11-28T02:43:19.448Z,59.37
2022-11-28T02:45:58.186Z,59.48
2022-11-28T02:48:31.998Z,59.68
2022-11-28T02:51:09.295Z,59.33
2022-11-28T02:53:36.014Z,59.19
2022-11-28T02:56:02.660Z,59.35
2022-11-28T02:58:29.270Z,58.55
2022-11-28T03:00:55.935Z,58.63
2022-11-28T03:03:47.870Z,59.19
2022-11-28T03:06:32.635Z,58.03
2022-11-28T03:09:08.997Z,57.93
2022-11-28T03:11:46.293Z,57.56
2022-11-28T03:14:15.745Z,58.17
2022-11-28T03:17:04.077Z,57.96
2022-11-28T03:19:37.076Z,58.82
2022-11-28T03:22:26.814Z,59.36
2022-11-28T03:24:57.449Z,59.02
2022-11-28T03:27:32.591Z,58.70
2022-11-28T03:30:24.323Z,58.49
2022-11-28T03:32:51.683Z,58.10
2022-11-28T03:35:20.377Z,59.88
2022-11-28T03:38:03.370Z,60.45
2022-11-28T03:40:33.278Z,58.88
2022-11-28T03:43:09.362Z,58.95
2022-11-28T03:45:47.079Z,58.73
2022-11-28T03:48:23.150Z,58.12
2022-11-28T03:50:59.112Z,58.64
2022-11-28T03:53:32.429Z,58.22
2022-11-28T03:56:09.188Z,57.96
2022-11-28T03:58:38.160Z,59.35
2022-11-28T04:01:44.217Z,57.89
2022-11-28T04:04:26.010Z,58.21
2022-11-28T04:07:03.603Z,57.64
2022-11-28T04:09:38.173Z,58.60
2022-11-28T04:12:10.700Z,58.68
2022-11-28T04:14:44.007Z,58.76
2022-11-28T04:17:26.747Z,58.49
2022-11-28T04:20:01.294Z,56.16
2022-11-28T04:22:29.833Z,56.07
2022-11-28T04:24:58.941Z,55.87
2022-11-28T04:27:33.281Z,54.46
2022-11-28T04:30:00.234Z,54.63
2022-11-28T04:32:26.877Z,54.81
2022-11-28T04:34:56.420Z,55.25
2022-11-28T04:37:23.343Z,55.27
2022-11-28T04:39:49.966Z,56.04
2022-11-28T04:42:43.341Z,55.87
2022-11-28T04:45:13.548Z,55.70
2022-11-28T04:47:40.188Z,56.13
2022-11-28T04:50:07.273Z,56.09
2022-11-28T04:52:56.187Z,55.33
2022-11-28T04:55:43.796Z,54.79
2022-11-28T04:58:22.433Z,54.57
2022-11-28T05:00:49.897Z,56.03
2022-11-28T05:03:16.579Z,54.62
2022-11-28T05:05:45.082Z,55.99
2022-11-28T05:08:11.695Z,56.62
2022-11-28T05:10:38.294Z,57.24
2022-11-28T05:13:04.930Z,58.02
2022-11-28T05:15:31.573Z,57.98
2022-11-28T05:17:58.199Z,58.42
2022-11-28T05:20:24.859Z,58.27
2022-11-28T05:22:51.488Z,58.38
2022-11-28T05:25:18.123Z,59.06
2022-11-28T05:27:44.753Z,58.58
2022-11-28T05:30:11.919Z,58.94
2022-11-28T05:32:38.551Z,59.76
2022-11-28T05:35:05.429Z,60.08
2022-11-28T05:37:32.057Z,60.68
2022-11-28T05:39:58.723Z,60.14
2022-11-28T05:42:25.342Z,61.10
2022-11-28T05:44:51.984Z,60.83
2022-11-28T05:47:18.627Z,60.02
2022-11-28T05:49:46.336Z,60.04
2022-11-28T05:52:12.993Z,61.96
2022-11-28T05:54:39.656Z,60.94
2022-11-28T05:57:06.349Z,59.39
2022-11-28T05:59:33.386Z,59.38
2022-11-28T06:02:00.169Z,60.38
2022-11-28T06:04:26.885Z,59.79
2022-11-28T06:06:53.566Z,59.67
2022-11-28T06:09:25.534Z,59.68
2022-11-28T06:11:52.578Z,58.94
2022-11-28T06:14:19.209Z,59.33
2022-11-28T06:16:45.872Z,58.23
2022-11-28T06:19:12.581Z,58.02
2022-11-28T06:21:39.471Z,57.74
2022-11-28T06:24:06.472Z,58.48
2022-11-28T06:26:33.192Z,58.71
2022-11-28T06:28:59.830Z,58.72
2022-11-28T06:31:28.485Z,56.02
2022-11-28T06:33:55.401Z,55.70
2022-11-28T06:36:22.018Z,55.68
2022-11-28T06:38:48.659Z,55.41
2022-11-28T06:41:16.694Z,55.49
2022-11-28T06:43:43.923Z,56.20
2022-11-28T06:46:16.166Z,55.86
2022-11-28T06:48:43.626Z,56.96
2022-11-28T06:51:10.890Z,56.78
2022-11-28T06:53:37.986Z,55.77
2022-11-28T06:56:09.357Z,55.98
2022-11-28T06:58:36.022Z,55.41
2022-11-28T07:01:19.296Z,55.68
2022-11-28T07:03:46.055Z,54.14
2022-11-28T07:06:13.157Z,53.32
2022-11-28T07:08:39.859Z,52.86
2022-11-28T07:11:14.549Z,53.70
2022-11-28T07:13:41.278Z,53.70
2022-11-28T07:16:08.257Z,52.67
2022-11-28T07:18:34.989Z,54.08
2022-11-28T07:21:01.602Z,52.95
2022-11-28T07:23:28.217Z,51.65
2022-11-28T07:26:00.492Z,53.53
2022-11-28T07:28:28.073Z,54.33
2022-11-28T07:31:04.735Z,54.09
2022-11-28T07:33:31.376Z,55.12
2022-11-28T07:36:02.068Z,54.09
2022-11-28T07:38:28.704Z,54.12
2022-11-28T07:40:55.319Z,54.92
2022-11-28T07:43:21.934Z,54.87
2022-11-28T07:46:00.491Z,54.86
2022-11-28T07:48:28.108Z,54.19
2022-11-28T07:50:54.748Z,54.35
2022-11-28T07:53:21.406Z,54.03
2022-11-28T07:55:48.011Z,54.95
2022-11-28T07:58:14.653Z,54.42
2022-11-28T08:00:41.342Z,54.70
2022-11-28T08:03:07.986Z,54.29
2022-11-28T08:05:34.622Z,55.94
2022-11-28T08:08:01.286Z,55.37
2022-11-28T08:10:27.936Z,56.50
2022-11-28T08:12:54.578Z,58.67
2022-11-28T08:15:21.198Z,58.97
2022-11-28T08:17:47.824Z,57.54
2022-11-28T08:20:14.430Z,57.02
2022-11-28T08:22:41.062Z,57.19
2022-11-28T08:25:07.913Z,57.40
2022-11-28T08:27:34.571Z,56.63
2022-11-28T08:30:01.189Z,56.39
2022-11-28T08:32:29.320Z,57.90
2022-11-28T08:34:55.934Z,56.35
2022-11-28T08:37:22.564Z,56.18
2022-11-28T08:39:49.196Z,56.28
2022-11-28T08:42:15.799Z,56.69
2022-11-28T08:44:42.439Z,56.58
2022-11-28T08:47:09.089Z,57.11
2022-11-28T08:49:36.979Z,57.23
2022-11-28T08:52:04.390Z,57.24
2022-11-28T08:54:31.124Z,57.57
2022-11-28T08:56:57.774Z,57.60
2022-11-28T08:59:24.649Z,57.81
2022-11-28T09:01:54.363Z,57.54
2022-11-28T09:04:21.664Z,57.78
2022-11-28T09:06:48.318Z,57.59
2022-11-28T09:09:14.998Z,56.88
2022-11-28T09:11:41.709Z,56.97
2022-11-28T09:14:08.333Z,57.81
2022-11-28T09:16:35.031Z,57.90
2022-11-28T09:19:01.694Z,58.46
2022-11-28T09:21:28.344Z,58.67
2022-11-28T09:23:55.333Z,59.04
2022-11-28T09:26:23.061Z,58.08
2022-11-28T09:28:49.698Z,57.54
2022-11-28T09:31:16.867Z,57.68
2022-11-28T09:33:43.833Z,57.80
2022-11-28T09:36:12.066Z,58.58
2022-11-28T09:38:38.797Z,58.35
2022-11-28T09:41:24.621Z,57.17
2022-11-28T09:43:54.868Z,57.09
2022-11-28T09:46:26.164Z,57.08
2022-11-28T09:48:54.448Z,55.75
2022-11-28T09:51:45.313Z,55.31
2022-11-28T09:54:21.325Z,55.81
2022-11-28T09:56:48.858Z,56.14
2022-11-28T09:59:25.378Z,56.65
2022-11-28T10:02:04.797Z,56.60
2022-11-28T10:04:46.748Z,57.41
2022-11-28T10:07:23.329Z,57.52
2022-11-28T10:10:03.317Z,57.63
2022-11-28T10:13:17.858Z,56.66
2022-11-28T10:16:02.327Z,56.88
2022-11-28T10:18:49.150Z,56.59
2022-11-28T10:21:37.693Z,54.11
2022-11-28T10:24:07.320Z,55.00
2022-11-28T10:26:38.057Z,53.92
2022-11-28T10:29:17.973Z,54.47
2022-11-28T10:31:44.843Z,54.98
2022-11-28T10:34:30.875Z,54.16
2022-11-28T10:37:16.162Z,54.57
2022-11-28T10:39:43.980Z,55.10
2022-11-28T10:42:47.721Z,55.05
2022-11-28T10:46:02.941Z,55.02
2022-11-28T10:48:41.819Z,53.61
2022-11-28T10:51:23.783Z,52.15
2022-11-28T10:53:59.203Z,51.30
2022-11-28T10:56:47.457Z,50.47
2022-11-28T10:59:13.962Z,50.67
2022-11-28T11:01:42.058Z,52.69
2022-11-28T11:04:17.391Z,53.16
2022-11-28T11:07:06.819Z,53.61
2022-11-28T11:09:32.559Z,53.87
2022-11-28T11:11:59.195Z,53.83
2022-11-28T11:14:36.290Z,56.01
2022-11-28T11:17:03.070Z,56.46
2022-11-28T11:19:34.154Z,56.67
2022-11-28T11:22:21.905Z,55.67
2022-11-28T11:25:13.722Z,56.06
2022-11-28T11:27:54.691Z,55.63
2022-11-28T11:30:34.073Z,55.57
2022-11-28T11:33:01.788Z,55.85
2022-11-28T11:35:30.179Z,56.07
2022-11-28T11:38:20.217Z,56.03
2022-11-28T11:40:47.573Z,56.08
2022-11-28T11:43:23.269Z,56.67
2022-11-28T11:46:06.302Z,56.28
2022-11-28T11:48:50.863Z,57.18
2022-11-28T11:51:28.121Z,56.04
2022-11-28T11:54:01.972Z,55.84
2022-11-28T11:56:35.459Z,56.21
2022-11-28T11:59:02.494Z,55.83
2022-11-28T12:01:30.293Z,53.62
2022-11-28T12:03:58.381Z,53.49
2022-11-28T12:06:29.460Z,53.84
2022-11-28T12:09:27.327Z,52.63
2022-11-28T12:12:01.126Z,53.21
2022-11-28T12:14:36.800Z,52.39
2022-11-28T12:20:50.053Z,54.53
2022-11-28T12:23:35.277Z,54.56
2022-11-28T12:26:21.085Z,55.49
2022-11-28T12:29:00.746Z,55.21
2022-11-28T12:31:51.847Z,57.04
2022-11-28T12:34:31.219Z,57.35
2022-11-28T12:37:48.351Z,57.70
2022-11-28T12:40:59.835Z,57.67
2022-11-28T12:43:41.866Z,58.72
2022-11-28T12:46:41.435Z,57.46
2022-11-28T12:49:27.115Z,57.59
2022-11-28T12:52:20.517Z,57.72
2022-11-28T12:55:00.388Z,58.03
2022-11-28T12:57:34.820Z,59.53
2022-11-28T13:00:14.090Z,58.26
2022-11-28T13:03:04.228Z,57.37
2022-11-28T13:05:53.638Z,56.49
2022-11-28T13:08:20.201Z,56.50
2022-11-28T13:11:10.943Z,55.84
2022-11-28T13:14:02.054Z,55.45
2022-11-28T13:16:42.913Z,56.20
2022-11-28T13:19:21.622Z,56.61
2022-11-28T13:21:53.090Z,56.00
2022-11-28T13:24:40.901Z,55.89
2022-11-28T13:27:25.649Z,57.10
2022-11-28T13:30:14.638Z,56.67
2022-11-28T13:33:05.528Z,55.39
2022-11-28T13:35:32.190Z,56.62
2022-11-28T13:38:48.303Z,57.35
2022-11-28T13:41:43.272Z,56.79
2022-11-28T13:44:03.694Z,55.40
2022-11-28T13:46:30.424Z,55.92
2022-11-28T13:49:20.252Z,56.71
2022-11-28T13:51:47.549Z,57.99
2022-11-28T13:54:19.798Z,58.55
2022-11-28T13:57:14.736Z,58.96
2022-11-28T13:59:41.432Z,59.46
2022-11-28T14:02:42.167Z,59.76
2022-11-28T14:05:27.200Z,59.04
2022-11-28T14:07:55.884Z,58.78
2022-11-28T14:10:29.472Z,59.23
2022-11-28T14:13:22.175Z,55.90
2022-11-28T14:15:57.897Z,56.94
2022-11-28T14:18:56.929Z,59.23
2022-11-28T14:21:31.957Z,59.40
2022-11-28T14:24:00.529Z,59.19
2022-11-28T14:26:29.884Z,60.50
2022-11-28T14:28:56.575Z,60.30
2022-11-28T14:31:31.687Z,60.90
2022-11-28T14:34:01.906Z,59.44
2022-11-28T14:36:35.912Z,59.80
2022-11-28T14:39:14.372Z,59.57
2022-11-28T14:42:04.085Z,61.32
2022-11-28T14:44:46.004Z,60.52
2022-11-28T14:47:31.839Z,60.41
2022-11-28T14:50:04.290Z,59.10
2022-11-28T14:52:40.693Z,58.84
2022-11-28T14:55:10.582Z,57.63
2022-11-28T14:57:39.946Z,57.63
2022-11-28T15:00:13.375Z,61.09
2022-11-28T15:03:07.953Z,61.49
2022-11-28T15:05:44.824Z,62.06
2022-11-28T15:08:20.259Z,61.77
2022-11-28T15:11:09.522Z,60.75
2022-11-28T15:14:13.503Z,61.20
2022-11-28T15:16:46.769Z,60.23
2022-11-28T15:19:23.057Z,60.12
2022-11-28T15:21:50.736Z,61.50
2022-11-28T15:24:22.790Z,61.30
2022-11-28T15:26:54.304Z,60.72
2022-11-28T15:29:25.959Z,63.72
2022-11-28T15:31:53.405Z,63.09
2022-11-28T15:34:26.675Z,63.74
2022-11-28T15:36:54.245Z,63.07
2022-11-28T15:39:34.400Z,64.10
2022-11-28T15:42:01.141Z,63.17
2022-11-28T15:44:27.807Z,63.90
2022-11-28T15:46:55.248Z,64.05
2022-11-28T15:49:30.944Z,64.47
2022-11-28T15:52:00.390Z,64.57
2022-11-28T15:54:29.525Z,63.70
2022-11-28T15:56:57.136Z,64.76
2022-11-28T15:59:23.880Z,63.58
2022-11-28T16:01:53.554Z,63.68
2022-11-28T16:04:24.429Z,64.70
2022-11-28T16:06:52.152Z,64.63
2022-11-28T16:09:18.645Z,65.28
2022-11-28T16:11:49.357Z,64.67
2022-11-28T16:14:32.838Z,64.20
2022-11-28T16:17:00.389Z,64.99
2022-11-28T16:19:34.009Z,65.81
2022-11-28T16:22:04.603Z,66.22
2022-11-28T16:24:44.513Z,66.58
2022-11-28T16:27:34.062Z,66.82
2022-11-28T16:30:01.324Z,65.96
2022-11-28T16:32:38.180Z,66.27
2022-11-28T16:35:05.565Z,66.35
2022-11-28T16:37:32.219Z,66.97
2022-11-28T16:40:19.728Z,67.25
2022-11-28T16:42:55.898Z,67.98
2022-11-28T16:45:26.116Z,66.75
2022-11-28T16:48:06.833Z,67.72
2022-11-28T16:50:33.676Z,67.27
2022-11-28T16:53:00.322Z,67.83
2022-11-28T16:55:32.498Z,67.33
2022-11-28T16:58:03.072Z,67.42
2022-11-28T17:00:29.788Z,66.83
2022-11-28T17:02:56.425Z,66.59
2022-11-28T17:05:23.149Z,66.92
2022-11-28T17:07:49.844Z,67.27
2022-11-28T17:10:16.504Z,68.14
2022-11-28T17:12:43.158Z,66.99
2022-11-28T17:15:18.049Z,66.68
2022-11-28T17:17:44.749Z,66.56
2022-11-28T17:20:14.895Z,66.37
2022-11-28T17:22:45.918Z,66.10
2022-11-28T17:25:19.816Z,66.07
2022-11-28T17:27:46.715Z,66.55
2022-11-28T17:30:14.421Z,65.68
2022-11-28T17:32:41.025Z,64.85
2022-11-28T17:35:19.933Z,65.87
2022-11-28T17:37:46.577Z,65.23
2022-11-28T17:40:13.265Z,65.40
2022-11-28T17:42:39.881Z,65.13
2022-11-28T17:45:13.003Z,64.89
2022-11-28T17:47:39.665Z,64.73
2022-11-28T17:50:06.910Z,64.64
2022-11-28T17:52:33.529Z,64.40
2022-11-28T17:55:05.035Z,63.94
2022-11-28T17:57:33.494Z,64.54
2022-11-28T18:00:00.121Z,64.38
2022-11-28T18:02:27.021Z,64.85
2022-11-28T18:04:53.662Z,64.49
2022-11-28T18:07:20.372Z,63.67
2022-11-28T18:09:47.063Z,64.58
2022-11-28T18:12:13.763Z,63.65
2022-11-28T18:14:40.512Z,65.02
2022-11-28T18:17:07.312Z,64.63
2022-11-28T18:19:34.064Z,63.93
2022-11-28T18:22:00.720Z,64.73
2022-11-28T18:24:27.334Z,65.58
2022-11-28T18:26:53.970Z,65.26
2022-11-28T18:29:20.607Z,64.90
2022-11-28T18:31:47.260Z,65.18
2022-11-28T18:34:13.942Z,65.40
2022-11-28T18:36:40.612Z,64.88
2022-11-28T18:39:08.564Z,65.32
2022-11-28T18:41:35.306Z,64.98
2022-11-28T18:44:03.509Z,64.41
2022-11-28T18:46:30.422Z,64.60
2022-11-28T18:48:57.089Z,64.44
2022-11-28T18:51:25.234Z,64.69
2022-11-28T18:53:53.103Z,64.87
2022-11-28T18:56:19.936Z,64.58
2022-11-28T18:58:47.636Z,64.66
2022-11-28T19:01:24.142Z,65.20
2022-11-28T19:03:51.976Z,64.16
2022-11-28T19:06:19.325Z,64.86
2022-11-28T19:08:45.971Z,65.08
2022-11-28T19:11:13.986Z,64.99
2022-11-28T19:13:41.418Z,65.51
2022-11-28T19:16:09.145Z,64.81
2022-11-28T19:18:35.905Z,65.10
2022-11-28T19:21:09.794Z,65.17
2022-11-28T19:23:36.431Z,64.23
2022-11-28T19:26:07.042Z,65.55
2022-11-28T19:28:36.662Z,64.33
2022-11-28T19:31:06.866Z,65.39
2022-11-28T19:33:33.487Z,64.81
2022-11-28T19:36:07.299Z,65.12
2022-11-28T19:38:34.539Z,64.92
2022-11-28T19:41:11.934Z,65.38
2022-11-28T19:43:38.833Z,65.52
2022-11-28T19:46:06.531Z,65.86
2022-11-28T19:48:33.859Z,65.36
2022-11-28T19:51:00.764Z,65.28
2022-11-28T19:53:28.533Z,65.37
2022-11-28T19:55:55.239Z,65.46
2022-11-28T19:58:21.994Z,66.37
2022-11-28T20:00:48.628Z,65.67
2022-11-28T20:03:16.636Z,66.54
2022-11-28T20:05:43.370Z,66.18
2022-11-28T20:08:10.249Z,66.29
2022-11-28T20:10:39.991Z,66.29
2022-11-28T20:13:06.617Z,66.89
2022-11-28T20:15:36.692Z,66.76
2022-11-28T20:18:03.339Z,66.32
2022-11-28T20:20:30.177Z,66.67
2022-11-28T20:22:56.814Z,66.41
2022-11-28T20:25:23.866Z,67.66
2022-11-28T20:27:50.507Z,66.05
2022-11-28T20:30:17.167Z,67.69
2022-11-28T20:32:43.840Z,66.95
2022-11-28T20:35:10.462Z,66.20
2022-11-28T20:37:37.352Z,66.09
2022-11-28T20:40:04.276Z,66.46
2022-11-28T20:42:34.297Z,66.70
2022-11-28T20:45:03.658Z,66.51
2022-11-28T20:47:30.311Z,65.86
2022-11-28T20:49:56.954Z,66.62
2022-11-28T20:52:23.592Z,65.75
2022-11-28T20:54:50.227Z,66.13
2022-11-28T20:57:21.673Z,66.11
2022-11-28T20:59:48.778Z,65.51
2022-11-28T21:02:16.710Z,65.26
2022-11-28T21:04:43.411Z,66.07
2022-11-28T21:07:10.122Z,65.83
2022-11-28T21:09:36.777Z,65.69
2022-11-28T21:12:03.668Z,64.97
2022-11-28T21:14:30.326Z,65.40
2022-11-28T21:16:57.315Z,66.35
2022-11-28T21:19:24.132Z,67.09
2022-11-28T21:21:50.852Z,67.14
2022-11-28T21:24:17.513Z,66.67
2022-11-28T21:26:48.169Z,65.99
2022-11-28T21:29:17.923Z,66.73
2022-11-28T21:31:44.683Z,66.97
2022-11-28T21:34:12.455Z,67.24
2022-11-28T21:36:39.147Z,66.41
2022-11-28T21:39:05.769Z,67.07
2022-11-28T21:41:32.431Z,66.37
2022-11-28T21:43:59.482Z,67.00
2022-11-28T21:46:26.324Z,67.83
2022-11-28T21:48:52.967Z,68.17
2022-11-28T21:51:21.592Z,68.13
2022-11-28T21:53:48.446Z,67.55
2022-11-28T21:56:15.087Z,66.94
2022-11-28T21:58:41.730Z,67.59
2022-11-28T22:01:09.874Z,68.21
2022-11-28T22:03:36.767Z,67.15
2022-11-28T22:06:08.813Z,66.92
2022-11-28T22:08:35.478Z,66.68
2022-11-28T22:11:07.997Z,67.34
2022-11-28T22:13:34.889Z,67.13
2022-11-28T22:16:01.597Z,66.97
2022-11-28T22:18:31.285Z,67.91
2022-11-28T22:21:12.910Z,66.91
2022-11-28T22:23:51.150Z,66.20
2022-11-28T22:26:17.845Z,67.00
2022-11-28T22:28:47.860Z,66.94
2022-11-28T22:31:19.891Z,66.62
2022-11-28T22:33:46.567Z,67.29
2022-11-28T22:36:14.775Z,66.98
2022-11-28T22:38:41.907Z,68.23
2022-11-28T22:41:09.110Z,67.19
2022-11-28T22:43:36.067Z,67.19
2022-11-28T22:46:02.764Z,67.17
2022-11-28T22:48:30.050Z,67.18
2022-11-28T22:50:56.733Z,66.97
2022-11-28T22:53:23.380Z,68.24
2022-11-28T22:55:50.031Z,69.04
2022-11-28T22:58:16.710Z,69.35
2022-11-28T23:00:43.381Z,69.37
2022-11-28T23:03:10.153Z,69.36
2022-11-28T23:05:39.963Z,67.58
2022-11-28T23:08:06.627Z,68.07
2022-11-28T23:10:36.120Z,69.53
2022-11-28T23:13:02.760Z,70.10
2022-11-28T23:15:29.451Z,69.75
2022-11-28T23:17:56.078Z,69.52
2022-11-28T23:20:22.738Z,68.93
2022-11-28T23:22:49.482Z,68.86
2022-11-28T23:25:16.156Z,68.87
2022-11-28T23:27:42.818Z,68.13
2022-11-28T23:30:09.721Z,68.18
2022-11-28T23:32:36.377Z,68.33
2022-11-28T23:35:03.028Z,68.10
2022-11-28T23:37:29.668Z,67.68
2022-11-28T23:39:56.323Z,67.19
2022-11-28T23:42:22.982Z,66.78
2022-11-28T23:44:49.596Z,66.16
2022-11-28T23:47:16.249Z,67.22
2022-11-28T23:49:42.907Z,67.57
2022-11-28T23:52:09.516Z,67.23
2022-11-28T23:54:36.165Z,67.82
2022-11-28T23:57:02.806Z,67.79
2022-11-28T23:59:29.451Z,68.67
